Time;durP1;ratioP1;P1;durP2;ratioP2;P2;SDS_P1;SDS_P2;PMS_P1;PMS_P2;Temp;Humidity;BMP_temperature;BMP_pressure;BME280_temperature;BME280_humidity;BME280_pressure;Samples;Min_cycle;Max_cycle;Signal;HPM_P1;HPM_P2
2022/10/03 00:01:53;;;;;;;;;;;;;;;10.06;100.00;100910.97;4913568;29;20345;-74
2022/10/03 00:04:31;;;;;;;;;;;;;;;10.03;100.00;100918.88;4927641;29;20006;-74
2022/10/03 00:07:19;;;;;;;;;;;;;;;10.04;100.00;100915.34;4912992;29;19915;-75
2022/10/03 00:09:53;;;;;;;;;;;;;;;10.02;100.00;100919.72;4925251;29;20412;-75
2022/10/03 00:12:41;;;;;;;;;;;;;;;10.06;100.00;100913.59;4912474;29;19923;-75
2022/10/03 00:15:16;;;;;;;;;;;;;;;10.04;100.00;100915.34;4913727;29;19922;-74
2022/10/03 00:17:57;;;;;;;;;;;;;;;10.00;100.00;100921.47;4916687;29;19915;-75
2022/10/03 00:20:34;;;;;;;;;;;;;;;10.00;100.00;100923.25;4911623;29;20451;-74
2022/10/03 00:23:14;;;;;;;;;;;;;;;10.00;100.00;100931.16;4911525;29;19922;-75
2022/10/03 00:25:59;;;;;;;;;;;;;;;9.98;100.00;100928.53;4909304;29;19915;-74
2022/10/03 00:28:43;;;;;;;;;;;;;;;10.00;100.00;100944.34;4913096;29;20022;-75
2022/10/03 00:31:13;;;;;;;;;;;;;;;10.05;100.00;100938.19;4927374;29;19919;-75
2022/10/03 00:34:01;;;;;;;;;;;;;;;10.03;100.00;100939.06;4909393;29;19915;-74
2022/10/03 00:36:33;;;;;;;;;;;;;;;10.04;100.00;100941.72;4911396;29;20426;-74
2022/10/03 00:39:17;;;;;;;;;;;;;;;10.02;100.00;100946.09;4915124;29;19967;-74
2022/10/03 00:42:01;;;;;;;;;;;;;;;10.09;100.00;100958.44;4908660;29;20346;-74
2022/10/03 00:44:46;;;;;;;;;;;;;;;10.18;100.00;100948.78;4909374;29;19926;-74
2022/10/03 00:47:30;;;;;;;;;;;;;;;10.30;100.00;100947.09;4912503;29;19927;-74
2022/10/03 00:50:15;;;;;;;;;;;;;;;10.40;100.00;100955.91;4910366;29;19983;-74
2022/10/03 00:52:59;;;;;;;;;;;;;;;10.49;100.00;100955.03;4913991;29;19915;-74
2022/10/03 00:55:42;;;;;;;;;;;;;;;10.47;100.00;100981.41;4913032;29;19921;-74
2022/10/03 00:58:14;;;;;;;;;;;;;;;10.46;100.00;100955.91;4909904;29;20449;-75
2022/10/03 01:00:41;;;;;;;;;;;;;;;10.44;100.00;100954.13;4911257;29;20396;-75
2022/10/03 01:03:09;;;;;;;;;;;;;;;10.35;100.00;100959.38;4912767;29;19915;-75
2022/10/03 01:05:53;;;;;;;;;;;;;;;10.35;100.00;100970.84;4909663;29;19919;-74
2022/10/03 01:08:36;;;;;;;;;;;;;;;10.31;100.00;100958.50;4911519;29;19915;-75
2022/10/03 01:11:14;;;;;;;;;;;;;;;10.28;100.00;100963.78;4912176;29;19922;-74
2022/10/03 01:13:45;;;;;;;;;;;;;;;10.25;100.00;100958.47;4908812;29;20401;-74
2022/10/03 01:16:30;;;;;;;;;;;;;;;10.22;100.00;100963.75;4912048;29;20395;-75
2022/10/03 01:19:03;;;;;;;;;;;;;;;10.16;100.00;100954.03;4924210;29;19915;-75
2022/10/03 01:21:56;;;;;;;;;;;;;;;10.16;100.00;100955.81;4911844;29;20306;-75
2022/10/03 01:25:00;;;;;;;;;;;;;;;10.07;100.00;100956.66;4911788;29;19919;-74
2022/10/03 01:30:21;;;;;;;;;;;;;;;10.03;100.00;100966.34;4907660;29;19957;-74
2022/10/03 01:30:23;;;;;;;;;;;;;;;10.07;100.00;100967.22;4905139;29;19945;-74
2022/10/03 01:33:00;;;;;;;;;;;;;;;10.04;100.00;100961.94;4912692;29;20374;-75
2022/10/03 01:35:44;;;;;;;;;;;;;;;10.05;100.00;100958.41;4911781;29;19921;-74
2022/10/03 01:38:19;;;;;;;;;;;;;;;10.09;100.00;100971.63;4908865;29;19915;-74
2022/10/03 01:41:01;;;;;;;;;;;;;;;10.22;100.00;100971.66;4913910;29;20389;-75
2022/10/03 01:43:37;;;;;;;;;;;;;;;10.26;100.00;100970.78;4909602;29;19924;-75
2022/10/03 01:46:11;;;;;;;;;;;;;;;10.32;100.00;100973.44;4906440;29;20006;-75
2022/10/03 01:48:45;;;;;;;;;;;;;;;10.43;100.00;100987.56;4911637;29;20005;-75
2022/10/03 01:51:11;;;;;;;;;;;;;;;10.51;100.00;100969.97;4912729;29;19976;-75
2022/10/03 01:53:55;;;;;;;;;;;;;;;10.57;100.00;100970.88;4909459;29;19958;-75
2022/10/03 01:56:25;;;;;;;;;;;;;;;10.58;100.00;100967.34;4924548;29;20018;-74
2022/10/03 01:58:56;;;;;;;;;;;;;;;10.68;100.00;100974.38;4908886;29;19914;-74
2022/10/03 02:01:28;;;;;;;;;;;;;;;10.73;100.00;100970.00;4910043;29;19935;-74
2022/10/03 02:03:53;;;;;;;;;;;;;;;10.75;100.00;100971.75;4911550;29;19915;-74
2022/10/03 02:06:21;;;;;;;;;;;;;;;10.83;100.00;100984.94;4911741;29;20047;-75
2022/10/03 02:09:03;;;;;;;;;;;;;;;10.82;100.00;100975.28;4908878;29;19926;-74
2022/10/03 02:11:28;;;;;;;;;;;;;;;10.84;100.00;100969.97;4906380;29;19915;-74
2022/10/03 02:14:14;;;;;;;;;;;;;;;10.82;100.00;100972.66;4927556;29;19919;-74
2022/10/03 02:16:43;;;;;;;;;;;;;;;10.87;100.00;100975.25;4906932;29;19915;-75
2022/10/03 02:19:21;;;;;;;;;;;;;;;10.92;100.00;100981.41;4909377;29;20001;-74
2022/10/03 02:21:48;;;;;;;;;;;;;;;10.97;100.00;100979.66;4914033;29;19915;-74
2022/10/03 02:24:13;;;;;;;;;;;;;;;10.93;100.00;100981.44;4907633;29;20425;-74
2022/10/03 02:26:57;;;;;;;;;;;;;;;11.03;100.00;100984.06;4908084;29;20017;-74
2022/10/03 02:29:22;;;;;;;;;;;;;;;11.00;100.00;100989.34;4912853;29;19986;-74
2022/10/03 02:31:56;;;;;;;;;;;;;;;11.06;100.00;100999.94;4911012;29;20354;-75
2022/10/03 02:34:37;;;;;;;;;;;;;;;11.09;100.00;100999.91;4908113;29;19947;-74
2022/10/03 02:37:21;;;;;;;;;;;;;;;11.08;100.00;100999.03;4914289;29;19915;-74
2022/10/03 02:40:06;;;;;;;;;;;;;;;11.14;100.00;101008.72;4908788;29;19918;-74
2022/10/03 02:42:50;;;;;;;;;;;;;;;11.12;100.00;101011.34;4908535;29;19979;-74
2022/10/03 02:45:34;;;;;;;;;;;;;;;11.07;100.00;101017.53;4911421;29;20306;-74
2022/10/03 02:48:10;;;;;;;;;;;;;;;11.11;100.00;101014.00;4909561;29;19916;-74
2022/10/03 02:50:41;;;;;;;;;;;;;;;11.11;100.00;101014.88;4907764;29;19923;-74
2022/10/03 02:53:33;;;;;;;;;;;;;;;11.14;100.00;101024.56;4912377;29;19923;-74
2022/10/03 02:56:01;;;;;;;;;;;;;;;11.14;100.00;101014.88;4912308;29;19922;-74
2022/10/03 02:59:05;;;;;;;;;;;;;;;11.16;100.00;101022.78;4909749;29;20275;-74
2022/10/03 03:01:49;;;;;;;;;;;;;;;11.20;100.00;101021.91;4913623;29;20283;-74
2022/10/03 03:04:21;;;;;;;;;;;;;;;11.26;100.00;101019.25;4908360;29;19920;-74
2022/10/03 03:07:02;;;;;;;;;;;;;;;11.28;100.00;101025.41;4910130;29;19971;-74
2022/10/03 03:10:00;;;;;;;;;;;;;;;11.30;100.00;101030.72;4916291;29;19919;-74
2022/10/03 03:12:43;;;;;;;;;;;;;;;11.27;100.00;101036.88;4909720;29;19914;-74
2022/10/03 03:15:28;;;;;;;;;;;;;;;11.27;100.00;101036.88;4927657;29;19915;-74
2022/10/03 03:18:10;;;;;;;;;;;;;;;11.25;100.00;101028.06;4915437;29;19922;-75
2022/10/03 03:20:53;;;;;;;;;;;;;;;11.21;100.00;101033.34;4911357;29;19922;-74
2022/10/03 03:23:28;;;;;;;;;;;;;;;11.22;100.00;101038.66;4913585;29;20002;-74
2022/10/03 03:26:18;;;;;;;;;;;;;;;11.23;100.00;101029.84;4912834;29;19915;-74
2022/10/03 03:29:02;;;;;;;;;;;;;;;11.34;100.00;101037.75;4910939;29;20391;-74
2022/10/03 03:31:46;;;;;;;;;;;;;;;11.40;100.00;101027.19;4909844;29;20002;-74
2022/10/03 03:34:20;;;;;;;;;;;;;;;11.51;100.00;101035.09;4913350;29;19994;-75
2022/10/03 03:36:48;;;;;;;;;;;;;;;11.55;99.70;101042.13;4914088;29;20289;-74
2022/10/03 03:39:24;;;;;;;;;;;;;;;11.61;98.62;101034.19;4921202;29;19915;-74
2022/10/03 03:42:11;;;;;;;;;;;;;;;11.63;98.15;101035.94;4911847;29;19914;-74
2022/10/03 03:45:01;;;;;;;;;;;;;;;11.65;97.93;101035.94;4923103;29;19922;-75
2022/10/03 03:47:42;;;;;;;;;;;;;;;11.59;98.22;101034.19;4916532;29;19922;-75
2022/10/03 03:50:16;;;;;;;;;;;;;;;11.58;98.26;101044.75;4927658;29;19963;-75
2022/10/03 03:52:59;;;;;;;;;;;;;;;11.60;97.78;101041.22;4912476;29;19922;-74
2022/10/03 03:55:34;;;;;;;;;;;;;;;11.68;97.11;101043.84;4912874;29;19919;-75
2022/10/03 03:57:59;;;;;;;;;;;;;;;11.66;97.38;101040.34;4914067;29;20322;-74
2022/10/03 04:00:30;;;;;;;;;;;;;;;11.68;97.48;101033.25;4910422;29;20006;-74
2022/10/03 04:02:56;;;;;;;;;;;;;;;11.69;97.33;101048.25;4911691;29;19937;-75
2022/10/03 04:05:45;;;;;;;;;;;;;;;11.67;97.84;101046.50;4913737;29;20675;-74
2022/10/03 04:08:37;;;;;;;;;;;;;;;11.63;97.42;101046.53;4911540;29;20014;-74
2022/10/03 04:11:15;;;;;;;;;;;;;;;11.65;97.28;101038.56;4912027;29;19915;-74
2022/10/03 04:13:51;;;;;;;;;;;;;;;11.66;97.34;101044.72;4914573;29;20005;-75
2022/10/03 04:18:56;;;;;;;;;;;;;;;11.57;97.60;101046.50;4910440;29;20415;-74
2022/10/03 04:19:23;;;;;;;;;;;;;;;11.55;97.26;101029.81;4914904;29;20010;-75
2022/10/03 04:22:10;;;;;;;;;;;;;;;11.53;96.68;101043.91;4910746;29;20020;-75
2022/10/03 04:25:00;;;;;;;;;;;;;;;11.44;98.35;101044.78;4907359;29;19922;-75
2022/10/03 04:27:44;;;;;;;;;;;;;;;11.43;99.15;101045.69;4910880;29;19915;-75
2022/10/03 04:30:14;;;;;;;;;;;;;;;11.40;98.19;101057.13;4926279;29;19962;-74
2022/10/03 04:32:58;;;;;;;;;;;;;;;11.49;98.26;101060.63;4911282;29;19914;-75
2022/10/03 04:35:50;;;;;;;;;;;;;;;11.41;98.19;101056.22;4915133;29;19915;-74
2022/10/03 04:38:22;;;;;;;;;;;;;;;11.39;97.96;101055.34;4912978;29;19995;-74
2022/10/03 04:40:58;;;;;;;;;;;;;;;11.36;98.58;101059.78;4907249;29;19918;-74
2022/10/03 04:43:45;;;;;;;;;;;;;;;11.33;97.98;101062.41;4919566;29;19914;-75
2022/10/03 04:46:26;;;;;;;;;;;;;;;11.32;98.29;101060.66;4911929;29;19921;-74
2022/10/03 04:48:58;;;;;;;;;;;;;;;11.27;98.30;101050.09;4907805;29;20001;-75
2022/10/03 04:51:23;;;;;;;;;;;;;;;11.27;98.23;101059.78;4914511;29;19915;-74
2022/10/03 04:54:03;;;;;;;;;;;;;;;11.23;98.98;101055.38;4912394;29;19914;-74
2022/10/03 04:56:33;;;;;;;;;;;;;;;11.21;99.42;101070.34;4910613;29;19957;-74
2022/10/03 04:59:17;;;;;;;;;;;;;;;11.20;99.13;101058.91;4912688;29;20049;-74
2022/10/03 05:02:05;;;;;;;;;;;;;;;11.22;99.23;101065.06;4913818;29;19922;-75
2022/10/03 05:04:35;;;;;;;;;;;;;;;11.23;99.07;101050.97;4910485;29;19916;-74
2022/10/03 05:07:07;;;;;;;;;;;;;;;11.24;98.96;101065.97;4910464;29;19914;-74
2022/10/03 05:09:41;;;;;;;;;;;;;;;11.26;99.12;101065.94;4913165;29;19970;-73
2022/10/03 05:12:27;;;;;;;;;;;;;;;11.22;99.15;101062.44;4908613;29;20305;-74
2022/10/03 05:15:11;;;;;;;;;;;;;;;11.26;99.74;101085.31;4925916;29;20472;-73
2022/10/03 05:17:55;;;;;;;;;;;;;;;11.33;99.15;101078.28;4911141;29;19979;-74
2022/10/03 05:20:32;;;;;;;;;;;;;;;11.34;98.78;101070.34;4908945;29;19940;-75
2022/10/03 05:23:15;;;;;;;;;;;;;;;11.44;98.49;101078.25;4913143;29;19953;-75
2022/10/03 05:26:19;;;;;;;;;;;;;;;11.43;98.42;101072.09;4911373;29;19915;-73
2022/10/03 05:28:44;;;;;;;;;;;;;;;11.49;98.47;101064.16;4913870;29;20361;-74
2022/10/03 05:31:25;;;;;;;;;;;;;;;11.49;98.42;101084.44;4912307;29;19919;-74
2022/10/03 05:33:59;;;;;;;;;;;;;;;11.52;98.15;101068.56;4909349;29;20294;-74
2022/10/03 05:36:32;;;;;;;;;;;;;;;11.55;97.84;101072.09;4909423;29;19967;-74
2022/10/03 05:39:15;;;;;;;;;;;;;;;11.55;97.40;101080.03;4908775;29;19916;-74
2022/10/03 05:41:49;;;;;;;;;;;;;;;11.53;97.71;101076.50;4903730;29;19915;-74
2022/10/03 05:44:16;;;;;;;;;;;;;;;11.51;98.04;101085.31;4907853;29;20014;-75
2022/10/03 05:46:51;;;;;;;;;;;;;;;11.50;98.48;101091.47;4922506;28;19930;-74
2022/10/03 05:49:26;;;;;;;;;;;;;;;11.53;98.16;101087.06;4911727;29;20412;-73
2022/10/03 05:52:11;;;;;;;;;;;;;;;11.56;98.31;101086.19;4909528;29;19919;-73
2022/10/03 05:54:44;;;;;;;;;;;;;;;11.55;97.83;101090.59;4909369;29;20330;-73
2022/10/03 05:57:19;;;;;;;;;;;;;;;11.55;97.72;101101.19;4909932;29;19922;-73
2022/10/03 05:59:53;;;;;;;;;;;;;;;11.62;97.94;101094.97;4908561;29;19919;-73
2022/10/03 06:02:18;;;;;;;;;;;;;;;11.61;97.70;101100.28;4921256;29;19922;-74
2022/10/03 06:04:55;;;;;;;;;;;;;;;11.62;97.61;101102.03;4922725;29;19919;-73
2022/10/03 06:07:21;;;;;;;;;;;;;;;11.73;97.54;101105.53;4907678;29;20346;-74
2022/10/03 06:09:49;;;;;;;;;;;;;;;11.78;97.02;101113.47;4906192;29;19973;-73
2022/10/03 06:12:34;;;;;;;;;;;;;;;11.82;96.68;101118.75;4911604;29;20386;-74
2022/10/03 06:15:18;;;;;;;;;;;;;;;11.85;96.23;101121.38;4907342;29;19963;-73
2022/10/03 06:17:59;;;;;;;;;;;;;;;11.80;95.72;101109.94;4911666;29;20400;-74
2022/10/03 06:20:43;;;;;;;;;;;;;;;11.85;95.78;101121.38;4922314;29;20422;-74
2022/10/03 06:23:08;;;;;;;;;;;;;;;11.96;95.39;101131.09;4910996;29;20401;-73
2022/10/03 06:25:52;;;;;;;;;;;;;;;12.00;94.65;101125.81;4907886;29;19919;-73
2022/10/03 06:28:20;;;;;;;;;;;;;;;12.02;94.73;101139.88;4907130;29;19914;-73
2022/10/03 06:30:45;;;;;;;;;;;;;;;12.09;93.96;101134.59;4909525;29;19978;-73
2022/10/03 06:33:26;;;;;;;;;;;;;;;12.18;92.78;101139.84;4911448;29;20445;-74
2022/10/03 06:35:58;;;;;;;;;;;;;;;12.21;92.82;101145.16;4908807;29;19961;-74
2022/10/03 06:38:23;;;;;;;;;;;;;;;12.21;92.24;101148.69;4909572;29;20433;-73
2022/10/03 06:40:57;;;;;;;;;;;;;;;12.24;92.82;101161.91;4907671;29;20005;-74
2022/10/03 06:43:41;;;;;;;;;;;;;;;12.23;91.79;101160.13;4910802;29;20402;-73
2022/10/03 06:46:15;;;;;;;;;;;;;;;12.20;92.77;101154.84;4909460;29;19987;-73
2022/10/03 06:49:00;;;;;;;;;;;;;;;12.24;92.72;101153.97;4925643;29;20398;-73
2022/10/03 06:51:50;;;;;;;;;;;;;;;12.20;92.27;101165.41;4912427;29;19915;-74
2022/10/03 06:54:30;;;;;;;;;;;;;;;12.20;93.56;101169.84;4909520;29;19915;-73
2022/10/03 06:57:07;;;;;;;;;;;;;;;12.07;96.09;101161.06;4911334;29;20629;-73
2022/10/03 06:59:52;;;;;;;;;;;;;;;11.97;95.62;101169.88;4915021;29;20416;-73
2022/10/03 07:02:36;;;;;;;;;;;;;;;11.91;96.75;101165.50;4910619;29;19915;-73
2022/10/03 07:05:35;;;;;;;;;;;;;;;11.98;96.12;101169.03;4909507;29;19942;-73
2022/10/03 07:08:19;;;;;;;;;;;;;;;12.11;95.54;101172.53;4907200;29;19915;-73
2022/10/03 07:10:47;;;;;;;;;;;;;;;12.11;94.94;101176.03;4907376;29;19930;-74
2022/10/03 07:13:14;;;;;;;;;;;;;;;12.18;94.82;101171.59;4913559;29;19919;-74
2022/10/03 07:15:48;;;;;;;;;;;;;;;12.35;94.29;101168.94;4907098;29;20360;-73
2022/10/03 07:18:25;;;;;;;;;;;;;;;12.47;92.12;101158.28;4911421;29;19915;-73
2022/10/03 07:21:03;;;;;;;;;;;;;;;12.48;91.05;101176.81;4910646;29;20309;-73
2022/10/03 07:23:41;;;;;;;;;;;;;;;12.52;90.75;101166.19;4912965;29;19922;-73
2022/10/03 07:26:35;;;;;;;;;;;;;;;12.65;90.96;101170.56;4908604;29;19923;-73
2022/10/03 07:29:07;;;;;;;;;;;;;;;12.71;89.95;101174.06;4910270;29;20391;-74
2022/10/03 07:31:50;;;;;;;;;;;;;;;12.77;89.69;101172.28;4911757;29;19915;-73
2022/10/03 07:34:34;;;;;;;;;;;;;;;12.83;89.32;101177.53;4908806;29;19915;-73
2022/10/03 07:40:13;;;;;;;;;;;;;;;12.93;88.83;101181.91;4909517;29;19915;-73
2022/10/03 07:42:39;;;;;;;;;;;;;;;13.04;89.04;101182.72;4912636;29;19925;-73
2022/10/03 07:45:19;;;;;;;;;;;;;;;13.18;86.68;101185.31;4915832;29;19956;-74
2022/10/03 07:47:59;;;;;;;;;;;;;;;13.02;87.51;101192.47;4920077;29;19929;-74
2022/10/03 07:50:27;;;;;;;;;;;;;;;13.09;87.57;101196.81;4909561;29;19927;-74
2022/10/03 07:52:59;;;;;;;;;;;;;;;13.13;86.73;101203.88;4911124;29;19926;-74
2022/10/03 07:55:43;;;;;;;;;;;;;;;13.09;86.31;101207.41;4909114;29;19923;-73
2022/10/03 07:58:18;;;;;;;;;;;;;;;13.20;86.61;101222.38;4911342;29;20267;-73
2022/10/03 08:00:56;;;;;;;;;;;;;;;13.25;86.26;101205.56;4909870;29;19975;-74
2022/10/03 08:03:40;;;;;;;;;;;;;;;13.28;85.57;101202.94;4914608;29;19914;-73
2022/10/03 08:06:10;;;;;;;;;;;;;;;13.39;85.08;101210.81;4909987;29;20297;-73
2022/10/03 08:08:49;;;;;;;;;;;;;;;13.30;84.73;101222.34;4910342;29;19930;-73
2022/10/03 08:11:14;;;;;;;;;;;;;;;13.13;85.58;101234.81;4913584;29;19923;-73
2022/10/03 08:13:53;;;;;;;;;;;;;;;13.06;84.69;101230.41;4911901;29;19970;-73
2022/10/03 08:16:36;;;;;;;;;;;;;;;13.03;85.58;101223.38;4910590;29;20010;-73
2022/10/03 08:19:11;;;;;;;;;;;;;;;13.07;85.16;101219.81;4911795;29;19923;-74
2022/10/03 08:21:50;;;;;;;;;;;;;;;13.13;84.11;101218.91;4912984;29;20703;-73
2022/10/03 08:24:41;;;;;;;;;;;;;;;13.20;84.42;101227.69;4926005;29;19924;-73
2022/10/03 08:27:25;;;;;;;;;;;;;;;13.26;84.56;101232.97;4913476;29;19915;-73
2022/10/03 08:30:14;;;;;;;;;;;;;;;13.31;83.63;101244.47;4910481;29;19925;-73
2022/10/03 08:32:58;;;;;;;;;;;;;;;13.11;85.40;101232.16;4909502;29;19922;-73
2022/10/03 08:35:42;;;;;;;;;;;;;;;13.27;85.51;101242.69;4913548;29;19915;-73
2022/10/03 08:38:11;;;;;;;;;;;;;;;13.23;84.40;101235.63;4910843;29;19923;-73
2022/10/03 08:40:42;;;;;;;;;;;;;;;13.12;83.76;101241.84;4920825;29;20536;-73
2022/10/03 08:43:21;;;;;;;;;;;;;;;13.18;83.52;101238.31;4915022;29;19915;-74
2022/10/03 08:46:04;;;;;;;;;;;;;;;13.25;83.86;101233.84;4908833;29;19915;-74
2022/10/03 08:48:40;;;;;;;;;;;;;;;13.25;85.14;101242.66;4912312;29;19922;-73
2022/10/03 08:51:25;;;;;;;;;;;;;;;13.31;84.38;101250.63;4913200;29;19967;-74
2022/10/03 08:54:10;;;;;;;;;;;;;;;13.36;83.63;101250.59;4934198;23;19915;-75
2022/10/03 08:56:35;;;;;;;;;;;;;;;13.36;83.53;101243.53;4926597;29;20018;-75
2022/10/03 08:59:17;;;;;;;;;;;;;;;13.46;83.16;101239.03;4934792;29;19990;-75
2022/10/03 09:02:00;;;;;;;;;;;;;;;13.54;82.59;101229.25;4936246;29;19978;-76
2022/10/03 09:04:41;;;;;;;;;;;;;;;13.72;82.20;101227.34;4930305;29;19966;-75
2022/10/03 09:07:25;;;;;;;;;;;;;;;13.87;80.19;101235.19;4935995;29;19914;-75
2022/10/03 09:10:07;;;;;;;;;;;;;;;14.17;79.36;101233.16;4934160;29;20636;-76
2022/10/03 09:12:42;;;;;;;;;;;;;;;14.16;77.99;101240.22;4935747;29;20324;-76
2022/10/03 09:15:17;;;;;;;;;;;;;;;14.14;78.88;101238.50;4935837;29;19914;-76
2022/10/03 09:17:42;;;;;;;;;;;;;;;14.20;76.24;101246.38;4933094;29;19969;-76
2022/10/03 09:20:16;;;;;;;;;;;;;;;14.13;76.80;101239.41;4935886;29;19915;-75
2022/10/03 09:22:51;;;;;;;;;;;;;;;13.99;78.17;101248.38;4934106;29;20285;-75
2022/10/03 09:25:34;;;;;;;;;;;;;;;14.09;78.00;101237.66;4930242;29;19919;-76
2022/10/03 09:28:19;;;;;;;;;;;;;;;13.97;77.16;101236.00;4933036;29;20436;-76
2022/10/03 09:30:54;;;;;;;;;;;;;;;13.82;78.21;101237.88;4935720;29;19919;-76
2022/10/03 09:33:42;;;;;;;;;;;;;;;14.02;76.09;101231.53;4935755;29;19914;-76
2022/10/03 09:36:14;;;;;;;;;;;;;;;14.16;75.84;101234.06;4933340;29;19915;-76
2022/10/03 09:38:54;;;;;;;;;;;;;;;14.05;74.96;101233.28;4935867;29;19914;-76
2022/10/03 09:41:38;;;;;;;;;;;;;;;13.82;76.33;101263.53;4947371;28;19938;-77
2022/10/03 09:44:16;;;;;;;;;;;;;;;13.80;78.77;101228.19;4940108;29;19958;-76
2022/10/03 09:46:44;;;;;;;;;;;;;;;13.91;78.44;101217.47;4935506;29;20345;-76
2022/10/03 09:49:14;;;;;;;;;;;;;;;14.01;75.20;101227.97;4934575;29;19922;-76
2022/10/03 09:51:47;;;;;;;;;;;;;;;14.36;73.43;101223.25;4933860;29;20420;-76
2022/10/03 09:54:31;;;;;;;;;;;;;;;14.66;71.24;101236.19;4935218;29;19919;-76
2022/10/03 09:57:09;;;;;;;;;;;;;;;14.67;71.46;101219.38;4932363;29;20365;-76
2022/10/03 09:59:55;;;;;;;;;;;;;;;14.82;69.15;101260.78;4947087;28;20332;-76
2022/10/03 10:02:37;;;;;;;;;;;;;;;14.52;69.90;101235.44;4931776;29;20005;-76
2022/10/03 10:05:34;;;;;;;;;;;;;;;14.41;71.28;101238.22;4934831;29;20369;-76
2022/10/03 10:08:19;;;;;;;;;;;;;;;14.57;68.76;101260.22;4932156;29;19915;-76
2022/10/03 10:11:08;;;;;;;;;;;;;;;14.77;67.80;101241.38;4935031;29;20009;-76
2022/10/03 10:13:52;;;;;;;;;;;;;;;15.05;67.86;101233.06;4935135;29;20020;-76
2022/10/03 10:16:36;;;;;;;;;;;;;;;15.31;65.12;101256.63;4934952;29;20356;-76
2022/10/03 10:19:04;;;;;;;;;;;;;;;15.15;66.16;101248.00;4933660;29;19964;-76
2022/10/03 10:21:36;;;;;;;;;;;;;;;14.89;67.43;101241.22;4934804;29;19962;-76
2022/10/03 10:24:32;;;;;;;;;;;;;;;14.77;68.18;101244.03;4931835;29;19929;-76
2022/10/03 10:27:18;;;;;;;;;;;;;;;14.76;67.92;101254.69;4932407;29;20400;-76
2022/10/03 10:30:02;;;;;;;;;;;;;;;14.54;67.85;101238.09;4947064;29;19923;-76
2022/10/03 10:32:46;;;;;;;;;;;;;;;14.56;67.69;101231.88;4931863;29;19966;-76
2022/10/03 10:35:11;;;;;;;;;;;;;;;14.53;67.99;101246.97;4933828;29;20001;-76
2022/10/03 10:37:53;;;;;;;;;;;;;;;14.62;68.36;101236.28;4932400;29;19922;-76
2022/10/03 10:40:37;;;;;;;;;;;;;;;14.73;68.05;101233.47;4935048;29;19919;-76
2022/10/03 10:43:05;;;;;;;;;;;;;;;15.04;68.66;101241.94;4936106;29;19915;-76
2022/10/03 10:45:31;;;;;;;;;;;;;;;15.32;67.15;101227.34;4934364;29;19957;-76
2022/10/03 10:47:59;;;;;;;;;;;;;;;15.35;67.19;101276.94;4934622;29;20006;-76
2022/10/03 10:50:42;;;;;;;;;;;;;;;15.36;67.63;101251.25;4934853;29;20376;-76
2022/10/03 10:53:08;;;;;;;;;;;;;;;15.44;65.78;101249.34;4931410;29;19954;-76
2022/10/03 10:55:45;;;;;;;;;;;;;;;15.21;66.44;101247.91;4933309;29;19938;-75
2022/10/03 10:58:23;;;;;;;;;;;;;;;14.95;66.75;101244.72;4934598;29;20397;-76
2022/10/03 11:01:24;;;;;;;;;;;;;;;14.86;66.71;101241.28;4932273;29;19922;-76
2022/10/03 11:03:52;;;;;;;;;;;;;;;15.12;67.50;101256.88;4940269;29;19914;-76
2022/10/03 11:06:21;;;;;;;;;;;;;;;15.23;66.16;101245.22;4930630;29;20013;-76
2022/10/03 11:08:59;;;;;;;;;;;;;;;15.43;67.11;101248.50;4933344;29;20016;-76
2022/10/03 11:11:31;;;;;;;;;;;;;;;15.45;66.94;101251.97;4941519;29;19914;-76
2022/10/03 11:14:15;;;;;;;;;;;;;;;15.36;67.02;101254.78;4934475;29;19922;-76
2022/10/03 11:16:49;;;;;;;;;;;;;;;15.29;67.07;101245.13;4934317;29;19941;-76
2022/10/03 11:19:33;;;;;;;;;;;;;;;15.34;66.60;101244.16;4948437;29;20424;-76
2022/10/03 11:22:17;;;;;;;;;;;;;;;15.53;66.26;101249.22;4938419;29;19915;-76
2022/10/03 11:25:01;;;;;;;;;;;;;;;15.69;66.24;101236.56;4935560;29;19953;-76
2022/10/03 11:27:40;;;;;;;;;;;;;;;15.62;65.35;101227.78;4945310;29;20444;-76
2022/10/03 11:30:17;;;;;;;;;;;;;;;15.75;65.50;101231.16;4939945;29;20302;-77
2022/10/03 11:33:01;;;;;;;;;;;;;;;15.91;65.19;101230.00;4936127;29;19915;-76
2022/10/03 11:35:48;;;;;;;;;;;;;;;16.08;65.37;101231.50;4934947;29;19977;-76
2022/10/03 11:38:21;;;;;;;;;;;;;;;16.03;64.47;101257.31;4939034;29;19914;-76
2022/10/03 11:40:54;;;;;;;;;;;;;;;15.76;63.67;101257.75;4941481;29;20288;-76
2022/10/03 11:43:29;;;;;;;;;;;;;;;15.67;65.05;101247.22;4938971;29;19915;-77
2022/10/03 11:46:05;;;;;;;;;;;;;;;15.61;64.90;101234.00;4948532;28;19915;-76
2022/10/03 11:48:30;;;;;;;;;;;;;;;15.54;64.52;101246.53;4937162;29;19922;-76
2022/10/03 11:51:01;;;;;;;;;;;;;;;15.54;65.11;101245.66;4938820;29;19921;-76
2022/10/03 11:53:36;;;;;;;;;;;;;;;15.48;65.36;101243.97;4938211;29;19922;-76
2022/10/03 11:56:11;;;;;;;;;;;;;;;15.48;66.11;101245.72;4934209;29;19915;-76
2022/10/03 11:58:43;;;;;;;;;;;;;;;15.53;64.53;101234.13;4935434;29;19985;-76
2022/10/03 12:01:27;;;;;;;;;;;;;;;15.41;64.93;101252.06;4937847;29;20373;-76
2022/10/03 12:03:53;;;;;;;;;;;;;;;15.60;65.06;101260.66;4936103;29;19922;-76
2022/10/03 12:09:29;;;;;;;;;;;;;;;15.49;63.86;101237.75;4937170;29;20013;-76
2022/10/03 12:11:59;;;;;;;;;;;;;;;15.74;64.00;101240.91;4936056;29;20419;-76
2022/10/03 12:14:39;;;;;;;;;;;;;;;15.84;64.83;101236.31;4937707;29;19915;-76
2022/10/03 12:17:07;;;;;;;;;;;;;;;15.98;64.00;101238.75;4937301;29;20411;-76
2022/10/03 12:19:44;;;;;;;;;;;;;;;16.35;63.79;101230.13;4937726;29;20293;-76
2022/10/03 12:22:17;;;;;;;;;;;;;;;16.68;62.42;101223.22;4935241;29;19915;-76
2022/10/03 12:24:44;;;;;;;;;;;;;;;16.69;62.26;101232.09;4937686;29;19924;-76
2022/10/03 12:27:09;;;;;;;;;;;;;;;16.78;61.57;101234.63;4936789;29;20029;-76
2022/10/03 12:29:37;;;;;;;;;;;;;;;16.83;61.00;101222.94;4937591;29;19969;-76
2022/10/03 12:32:20;;;;;;;;;;;;;;;16.84;60.39;101229.16;4936204;29;19915;-76
2022/10/03 12:34:49;;;;;;;;;;;;;;;16.86;60.93;101211.34;4937992;29;20424;-76
2022/10/03 12:37:14;;;;;;;;;;;;;;;16.74;60.14;101222.22;4936217;29;20344;-76
2022/10/03 12:39:49;;;;;;;;;;;;;;;16.52;61.45;101229.78;4937860;29;19962;-76
2022/10/03 12:42:28;;;;;;;;;;;;;;;16.41;61.81;101233.53;4935721;29;19969;-76
2022/10/03 12:44:56;;;;;;;;;;;;;;;16.37;61.87;101233.63;4938739;28;19914;-76
2022/10/03 12:47:25;;;;;;;;;;;;;;;16.27;63.74;101232.03;4937355;29;19926;-76
2022/10/03 12:49:55;;;;;;;;;;;;;;;16.48;62.61;101228.97;4937677;29;19919;-76
2022/10/03 12:52:25;;;;;;;;;;;;;;;16.44;63.92;101235.25;4937351;29;19977;-76
2022/10/03 12:55:22;;;;;;;;;;;;;;;16.44;63.19;101241.47;4936959;29;19914;-76
2022/10/03 12:57:54;;;;;;;;;;;;;;;16.48;62.01;101242.31;4925628;29;20026;-76
2022/10/03 13:00:22;;;;;;;;;;;;;;;16.42;63.46;101240.59;4944862;29;19962;-77
2022/10/03 13:03:06;;;;;;;;;;;;;;;16.15;63.20;101247.34;4944733;29;19915;-77
2022/10/03 13:05:43;;;;;;;;;;;;;;;16.09;64.06;101250.13;4935313;29;19918;-76
2022/10/03 13:08:27;;;;;;;;;;;;;;;16.06;64.89;101249.25;4933425;29;19926;-76
2022/10/03 13:10:55;;;;;;;;;;;;;;;15.75;65.82;101258.66;4936546;29;19925;-76
2022/10/03 13:13:24;;;;;;;;;;;;;;;15.53;68.92;101247.41;4937474;29;19919;-76
2022/10/03 13:16:02;;;;;;;;;;;;;;;15.07;76.30;101252.53;4937085;29;19960;-76
2022/10/03 13:18:41;;;;;;;;;;;;;;;14.78;79.29;101248.47;4937105;29;20013;-75
2022/10/03 13:21:19;;;;;;;;;;;;;;;14.62;82.73;101247.75;4936141;29;19914;-76
2022/10/03 13:23:57;;;;;;;;;;;;;;;14.67;82.64;101251.25;4934581;29;20441;-76
2022/10/03 13:26:34;;;;;;;;;;;;;;;14.87;78.45;101242.16;4936694;29;19922;-76
2022/10/03 13:29:12;;;;;;;;;;;;;;;15.02;76.60;101249.94;4937068;29;19923;-76
2022/10/03 13:31:54;;;;;;;;;;;;;;;15.07;76.59;101244.56;4935778;29;19966;-76
2022/10/03 13:34:22;;;;;;;;;;;;;;;15.26;75.29;101232.75;4931794;29;20093;-76